Time;durP1;ratioP1;P1;durP2;ratioP2;P2;SDS_P1;SDS_P2;PMS_P1;PMS_P2;Temp;Humidity;BMP_temperature;BMP_pressure;BME280_temperature;BME280_humidity;BME280_pressure;Samples;Min_cycle;Max_cycle;Signal;HPM_P1;HPM_P2
2021/10/22 00:00:35;;;;;;;18.88;3.38;;;;;;;;;;4949269;28;20827;-67
2021/10/22 00:03:00;;;;;;;19.55;3.42;;;;;;;;;;4943893;28;20031;-65
2021/10/22 00:05:25;;;;;;;11.25;2.83;;;;;;;;;;4948664;28;20031;-66
2021/10/22 00:07:51;;;;;;;21.88;3.55;;;;;;;;;;4938998;28;20028;-66
2021/10/22 00:10:16;;;;;;;24.60;4.45;;;;;;;;;;4943187;28;20201;-66
2021/10/22 00:12:41;;;;;;;14.95;3.53;;;;;;;;;;4941686;28;20094;-66
2021/10/22 00:15:08;;;;;;;19.05;3.50;;;;;;;;;;4945871;28;20047;-65
2021/10/22 00:17:33;;;;;;;20.27;3.45;;;;;;;;;;4941969;28;20478;-66
2021/10/22 00:19:59;;;;;;;11.68;3.15;;;;;;;;;;4948550;28;20114;-66
2021/10/22 00:22:24;;;;;;;14.00;3.25;;;;;;;;;;4948237;28;20047;-66
2021/10/22 00:24:49;;;;;;;16.92;3.10;;;;;;;;;;4949410;28;20114;-65
2021/10/22 00:27:14;;;;;;;23.92;3.80;;;;;;;;;;4949002;28;20051;-66
2021/10/22 00:29:40;;;;;;;20.33;3.65;;;;;;;;;;4939254;28;20377;-66
2021/10/22 00:32:05;;;;;;;13.63;3.22;;;;;;;;;;4938536;28;20497;-66
2021/10/22 00:34:31;;;;;;;27.13;4.13;;;;;;;;;;4942247;28;20031;-66
2021/10/22 00:36:57;;;;;;;27.98;3.75;;;;;;;;;;4956212;28;20042;-66
2021/10/22 00:39:22;;;;;;;21.88;3.70;;;;;;;;;;4942899;28;20082;-66
2021/10/22 00:41:49;;;;;;;16.35;4.20;;;;;;;;;;4948974;28;20111;-66
2021/10/22 00:44:14;;;;;;;18.80;3.85;;;;;;;;;;4935826;28;20460;-65
2021/10/22 00:46:39;;;;;;;17.27;3.80;;;;;;;;;;4941705;28;20114;-65
2021/10/22 00:49:08;;;;;;;24.25;4.18;;;;;;;;;;4941563;28;20046;-66
2021/10/22 00:51:33;;;;;;;21.95;4.28;;;;;;;;;;4946431;28;20039;-66
2021/10/22 00:53:59;;;;;;;8.70;2.38;;;;;;;;;;4949169;28;20027;-66
2021/10/22 00:56:24;;;;;;;12.85;3.60;;;;;;;;;;4943032;28;20039;-66
2021/10/22 00:58:50;;;;;;;15.13;3.88;;;;;;;;;;4947179;28;20026;-66
2021/10/22 01:01:15;;;;;;;22.45;4.78;;;;;;;;;;4947500;28;20066;-66
2021/10/22 01:03:40;;;;;;;18.55;3.38;;;;;;;;;;4943892;28;20117;-66
2021/10/22 01:06:05;;;;;;;17.30;2.88;;;;;;;;;;4945796;28;20052;-65
2021/10/22 01:08:33;;;;;;;18.58;3.95;;;;;;;;;;4939920;28;20023;-66
2021/10/22 01:10:59;;;;;;;17.42;4.22;;;;;;;;;;4941008;28;20039;-66
2021/10/22 01:13:24;;;;;;;16.95;4.30;;;;;;;;;;4947955;28;20421;-65
2021/10/22 01:15:49;;;;;;;14.77;3.05;;;;;;;;;;4947870;28;20035;-66
2021/10/22 01:18:15;;;;;;;21.88;3.70;;;;;;;;;;4940432;28;20122;-66
2021/10/22 01:20:41;;;;;;;10.80;3.00;;;;;;;;;;4944741;28;20035;-65
2021/10/22 01:23:07;;;;;;;17.88;3.35;;;;;;;;;;4946467;28;20075;-66
2021/10/22 01:25:32;;;;;;;15.73;3.65;;;;;;;;;;4934808;28;20069;-66
2021/10/22 01:27:57;;;;;;;16.33;3.22;;;;;;;;;;4944111;28;20023;-65
2021/10/22 01:30:23;;;;;;;19.98;4.00;;;;;;;;;;4941800;28;20039;-65
2021/10/22 01:32:52;;;;;;;14.45;3.72;;;;;;;;;;4946948;28;20617;-66
2021/10/22 01:35:18;;;;;;;16.80;3.33;;;;;;;;;;4945975;28;20031;-66
2021/10/22 01:37:43;;;;;;;19.35;3.60;;;;;;;;;;4941378;29;20038;-66
2021/10/22 01:40:08;;;;;;;19.75;3.38;;;;;;;;;;4942327;28;20520;-66
2021/10/22 01:42:34;;;;;;;18.88;4.20;;;;;;;;;;4945675;28;20520;-66
2021/10/22 01:44:59;;;;;;;8.50;2.70;;;;;;;;;;4946303;28;20023;-65
2021/10/22 01:47:24;;;;;;;18.35;3.80;;;;;;;;;;4947086;28;20094;-66
2021/10/22 01:49:50;;;;;;;15.10;4.07;;;;;;;;;;4947413;28;20488;-65
2021/10/22 01:52:15;;;;;;;16.27;3.97;;;;;;;;;;4946236;28;20397;-66
2021/10/22 01:54:40;;;;;;;13.20;4.13;;;;;;;;;;4947352;28;20110;-66
2021/10/22 01:57:07;;;;;;;15.48;3.80;;;;;;;;;;4942829;28;20394;-66
2021/10/22 01:59:32;;;;;;;15.48;4.32;;;;;;;;;;4946114;29;20027;-66
2021/10/22 02:01:57;;;;;;;12.45;3.53;;;;;;;;;;4939002;28;20513;-64
2021/10/22 02:04:23;;;;;;;14.60;3.67;;;;;;;;;;4944939;29;20186;-65
2021/10/22 02:06:49;;;;;;;14.40;3.28;;;;;;;;;;4944779;28;20039;-67
2021/10/22 02:09:15;;;;;;;16.45;4.30;;;;;;;;;;4938129;29;20031;-65
2021/10/22 02:11:40;;;;;;;17.50;3.90;;;;;;;;;;4940740;28;20031;-65
2021/10/22 02:14:05;;;;;;;9.77;2.60;;;;;;;;;;4937689;28;20351;-67
2021/10/22 02:16:30;;;;;;;11.40;3.80;;;;;;;;;;4942666;28;20087;-68
2021/10/22 02:18:56;;;;;;;15.43;3.85;;;;;;;;;;4946681;28;20035;-65
2021/10/22 02:21:21;;;;;;;16.75;4.35;;;;;;;;;;4940993;28;20171;-65
2021/10/22 02:23:46;;;;;;;20.02;4.18;;;;;;;;;;4946943;28;20130;-65
2021/10/22 02:26:11;;;;;;;16.00;4.20;;;;;;;;;;4930470;28;20431;-65
2021/10/22 02:28:36;;;;;;;19.40;5.70;;;;;;;;;;4941419;28;20043;-65
2021/10/22 02:31:02;;;;;;;20.92;4.65;;;;;;;;;;4945320;28;20487;-65
2021/10/22 02:33:27;;;;;;;18.63;3.85;;;;;;;;;;4940545;28;20034;-65
2021/10/22 02:35:52;;;;;;;10.50;3.72;;;;;;;;;;4947284;28;20095;-64
2021/10/22 02:38:18;;;;;;;17.40;4.22;;;;;;;;;;4942248;28;20064;-64
2021/10/22 02:40:43;;;;;;;17.00;3.50;;;;;;;;;;4938153;28;20122;-65
2021/10/22 02:43:08;;;;;;;15.27;3.70;;;;;;;;;;4949746;29;20506;-65
2021/10/22 02:45:33;;;;;;;12.98;4.10;;;;;;;;;;4945333;28;20035;-65
2021/10/22 02:47:59;;;;;;;14.10;4.25;;;;;;;;;;4946129;28;20410;-65
2021/10/22 02:50:24;;;;;;;15.77;4.03;;;;;;;;;;4950036;28;20027;-65
2021/10/22 02:52:49;;;;;;;14.15;3.97;;;;;;;;;;4938967;28;20033;-65
2021/10/22 02:55:15;;;;;;;14.35;3.92;;;;;;;;;;4944472;28;20501;-65
2021/10/22 02:57:40;;;;;;;19.88;4.45;;;;;;;;;;4949222;28;20055;-65
2021/10/22 03:00:05;;;;;;;13.68;4.15;;;;;;;;;;4949911;28;20045;-65
2021/10/22 03:02:30;;;;;;;14.95;4.38;;;;;;;;;;4947382;28;20444;-65
2021/10/22 03:04:56;;;;;;;18.48;4.22;;;;;;;;;;4957904;28;20041;-65
2021/10/22 03:07:21;;;;;;;14.68;4.10;;;;;;;;;;4947848;28;20137;-65
2021/10/22 03:09:46;;;;;;;15.65;4.47;;;;;;;;;;4949583;28;20043;-65
2021/10/22 03:12:11;;;;;;;18.20;4.07;;;;;;;;;;4949880;28;20511;-65
2021/10/22 03:14:37;;;;;;;21.58;4.43;;;;;;;;;;4950258;28;20054;-65
2021/10/22 03:17:02;;;;;;;22.77;4.35;;;;;;;;;;4945070;28;20049;-65
2021/10/22 03:19:27;;;;;;;16.00;4.13;;;;;;;;;;4949277;28;20385;-66
2021/10/22 03:21:52;;;;;;;17.65;4.82;;;;;;;;;;4949426;28;20110;-66
2021/10/22 03:24:18;;;;;;;14.85;4.25;;;;;;;;;;4942331;29;20110;-65
2021/10/22 03:26:43;;;;;;;18.48;4.80;;;;;;;;;;4942607;28;20057;-66
2021/10/22 03:29:08;;;;;;;15.50;4.35;;;;;;;;;;4945337;28;20110;-66
2021/10/22 03:31:35;;;;;;;20.65;4.40;;;;;;;;;;4940068;28;20051;-66
2021/10/22 03:34:00;;;;;;;19.45;4.82;;;;;;;;;;4947969;28;20371;-66
2021/10/22 03:36:25;;;;;;;18.90;4.97;;;;;;;;;;4949091;28;20039;-64
2021/10/22 03:38:50;;;;;;;12.57;4.18;;;;;;;;;;4941807;29;20043;-64
2021/10/22 03:41:16;;;;;;;11.18;4.97;;;;;;;;;;4942353;28;20054;-64
2021/10/22 03:43:41;;;;;;;20.10;5.25;;;;;;;;;;4943616;29;20038;-65
2021/10/22 03:46:06;;;;;;;18.50;5.63;;;;;;;;;;4941819;28;20066;-64
2021/10/22 03:48:32;;;;;;;24.90;6.47;;;;;;;;;;4949153;28;20658;-66
2021/10/22 03:50:57;;;;;;;17.98;6.00;;;;;;;;;;4944934;28;20043;-67
2021/10/22 03:53:22;;;;;;;19.48;5.97;;;;;;;;;;4949108;28;20110;-65
2021/10/22 03:55:48;;;;;;;17.23;6.28;;;;;;;;;;4938029;28;20066;-65
2021/10/22 03:58:13;;;;;;;21.48;6.53;;;;;;;;;;4951376;28;20030;-65
2021/10/22 04:00:39;;;;;;;14.48;6.57;;;;;;;;;;4934467;28;20096;-65
2021/10/22 04:03:04;;;;;;;16.63;4.57;;;;;;;;;;4944902;28;20038;-65
2021/10/22 04:05:29;;;;;;;15.30;5.07;;;;;;;;;;4944890;28;20127;-66
2021/10/22 04:07:56;;;;;;;19.33;5.13;;;;;;;;;;4959910;28;20496;-66
2021/10/22 04:10:21;;;;;;;23.23;5.88;;;;;;;;;;4942391;28;20055;-66
2021/10/22 04:12:46;;;;;;;15.05;6.03;;;;;;;;;;4941578;29;20750;-66
2021/10/22 04:15:12;;;;;;;13.75;6.35;;;;;;;;;;4948797;28;20050;-66
2021/10/22 04:17:37;;;;;;;17.77;5.70;;;;;;;;;;4938727;29;20028;-66
2021/10/22 04:20:02;;;;;;;21.90;6.45;;;;;;;;;;4939326;28;20050;-65
2021/10/22 04:22:28;;;;;;;14.55;6.60;;;;;;;;;;4948864;28;20027;-66
2021/10/22 04:24:53;;;;;;;17.45;6.72;;;;;;;;;;4948871;28;20086;-65
2021/10/22 04:27:19;;;;;;;15.48;5.78;;;;;;;;;;4943552;28;20031;-65
2021/10/22 04:29:44;;;;;;;8.30;4.55;;;;;;;;;;4944721;28;20099;-65
2021/10/22 04:32:09;;;;;;;22.00;6.63;;;;;;;;;;4946259;28;20039;-65
2021/10/22 04:34:34;;;;;;;10.70;5.45;;;;;;;;;;4945891;28;20437;-65
2021/10/22 04:42:42;;;;;;;18.25;8.55;;;;;;;;;;4938618;28;20516;-65
2021/10/22 04:45:08;;;;;;;16.10;6.28;;;;;;;;;;4948186;28;20446;-65
2021/10/22 04:47:33;;;;;;;23.00;8.23;;;;;;;;;;4947038;28;20023;-66
2021/10/22 04:49:58;;;;;;;14.65;7.63;;;;;;;;;;4942290;28;20090;-65
2021/10/22 04:52:23;;;;;;;17.15;7.57;;;;;;;;;;4938476;28;20048;-65
2021/10/22 04:54:48;;;;;;;21.13;8.80;;;;;;;;;;4941882;29;20457;-65
2021/10/22 04:57:14;;;;;;;21.30;8.77;;;;;;;;;;4941945;28;20078;-66
2021/10/22 04:59:40;;;;;;;20.70;8.77;;;;;;;;;;4938623;28;20024;-66
2021/10/22 05:02:05;;;;;;;19.75;8.10;;;;;;;;;;4942941;28;20086;-66
2021/10/22 05:04:30;;;;;;;22.38;8.23;;;;;;;;;;4939907;28;20058;-66
2021/10/22 05:06:55;;;;;;;23.13;9.25;;;;;;;;;;4944882;28;20040;-65
2021/10/22 05:09:20;;;;;;;17.27;8.27;;;;;;;;;;4945665;28;20077;-65
2021/10/22 05:11:46;;;;;;;24.45;8.30;;;;;;;;;;4944739;28;20128;-66
2021/10/22 05:14:11;;;;;;;18.92;8.70;;;;;;;;;;4957820;28;20055;-67
2021/10/22 05:16:36;;;;;;;18.55;7.05;;;;;;;;;;4939424;28;20039;-65
2021/10/22 05:19:02;;;;;;;19.98;6.65;;;;;;;;;;4941078;29;20027;-65
2021/10/22 05:21:27;;;;;;;24.73;8.13;;;;;;;;;;4941529;28;20039;-65
2021/10/22 05:23:53;;;;;;;15.73;6.20;;;;;;;;;;4948416;28;20425;-65
2021/10/22 05:26:18;;;;;;;10.40;4.80;;;;;;;;;;4944337;28;20438;-65
2021/10/22 05:28:43;;;;;;;14.93;6.95;;;;;;;;;;4930764;29;20033;-65
2021/10/22 05:31:08;;;;;;;22.33;6.30;;;;;;;;;;4950415;28;20047;-66
2021/10/22 05:33:34;;;;;;;21.98;7.53;;;;;;;;;;4938563;28;20027;-65
2021/10/22 05:35:59;;;;;;;12.45;5.35;;;;;;;;;;4947682;28;20217;-65
2021/10/22 05:38:24;;;;;;;17.13;6.32;;;;;;;;;;4946278;28;20019;-65
2021/10/22 05:40:49;;;;;;;16.35;7.10;;;;;;;;;;4941889;28;20405;-65
2021/10/22 05:43:15;;;;;;;8.63;5.15;;;;;;;;;;4935998;29;20370;-65
2021/10/22 05:45:40;;;;;;;11.98;5.90;;;;;;;;;;4941253;28;20393;-65
2021/10/22 05:48:05;;;;;;;18.65;6.25;;;;;;;;;;4935988;29;20031;-65
2021/10/22 05:50:31;;;;;;;15.73;6.28;;;;;;;;;;4943857;28;20040;-65
2021/10/22 05:52:56;;;;;;;22.63;6.30;;;;;;;;;;4941559;29;20385;-66
2021/10/22 05:55:21;;;;;;;13.32;5.90;;;;;;;;;;4957056;28;20440;-65
2021/10/22 05:57:47;;;;;;;18.08;5.95;;;;;;;;;;4941387;28;20110;-65
2021/10/22 06:00:12;;;;;;;17.20;6.60;;;;;;;;;;4955686;28;20074;-65
2021/10/22 06:02:38;;;;;;;17.88;6.78;;;;;;;;;;4947675;28;20134;-66
2021/10/22 06:05:04;;;;;;;17.65;6.30;;;;;;;;;;4946965;28;20037;-66
2021/10/22 06:07:29;;;;;;;14.55;5.82;;;;;;;;;;4959772;28;20052;-67
2021/10/22 06:09:54;;;;;;;22.63;6.82;;;;;;;;;;4946138;28;20031;-66
2021/10/22 06:12:21;;;;;;;16.70;6.18;;;;;;;;;;4945604;28;20039;-66
2021/10/22 06:14:46;;;;;;;16.45;6.65;;;;;;;;;;4944811;28;20058;-67
2021/10/22 06:17:11;;;;;;;13.93;5.80;;;;;;;;;;4946641;28;20043;-66
2021/10/22 06:19:40;;;;;;;14.88;5.63;;;;;;;;;;4942332;28;20019;-66
2021/10/22 06:24:30;;;;;;;14.75;6.05;;;;;;;;;;4949097;29;20389;-66
2021/10/22 06:26:55;;;;;;;12.68;6.35;;;;;;;;;;4947415;28;20038;-66
2021/10/22 06:29:20;;;;;;;9.88;3.78;;;;;;;;;;4941792;28;20034;-66
2021/10/22 06:31:47;;;;;;;11.90;5.65;;;;;;;;;;4951533;28;20087;-65
2021/10/22 06:34:12;;;;;;;15.63;6.47;;;;;;;;;;4943316;28;20110;-66
2021/10/22 06:36:38;;;;;;;10.70;5.03;;;;;;;;;;4940842;28;20569;-65
2021/10/22 06:39:03;;;;;;;15.52;6.70;;;;;;;;;;4944132;28;20038;-65
2021/10/22 06:41:29;;;;;;;21.45;7.90;;;;;;;;;;4949410;28;20031;-65
2021/10/22 06:43:54;;;;;;;14.00;6.78;;;;;;;;;;4944573;28;20600;-66
2021/10/22 06:46:20;;;;;;;19.80;7.10;;;;;;;;;;4934668;28;20174;-66
2021/10/22 06:48:47;;;;;;;17.20;5.93;;;;;;;;;;4945504;28;20359;-66
2021/10/22 06:51:13;;;;;;;16.65;5.55;;;;;;;;;;4947331;28;20031;-64
2021/10/22 06:53:38;;;;;;;18.80;6.28;;;;;;;;;;4950304;28;20034;-64
2021/10/22 06:56:04;;;;;;;13.10;6.38;;;;;;;;;;4943711;28;20042;-65
2021/10/22 06:58:29;;;;;;;18.13;6.25;;;;;;;;;;4947148;28;20480;-64
2021/10/22 07:00:54;;;;;;;18.77;6.55;;;;;;;;;;4947019;28;20093;-64
2021/10/22 07:03:22;;;;;;;9.77;4.95;;;;;;;;;;4948500;29;20043;-64
2021/10/22 07:06:01;;;;;;;20.63;5.57;;;;;;;;;;4940989;28;20058;-66
2021/10/22 07:08:27;;;;;;;13.13;6.40;;;;;;;;;;4950250;28;20023;-64
2021/10/22 07:10:52;;;;;;;11.75;5.38;;;;;;;;;;4954690;28;20045;-64
2021/10/22 07:13:17;;;;;;;12.98;5.95;;;;;;;;;;4947048;28;20070;-66
2021/10/22 07:15:43;;;;;;;12.40;5.28;;;;;;;;;;4945716;28;20147;-65
2021/10/22 07:18:08;;;;;;;15.60;6.13;;;;;;;;;;4937698;28;20126;-64
2021/10/22 07:20:34;;;;;;;16.55;7.10;;;;;;;;;;4949587;28;20504;-67
2021/10/22 07:23:04;;;;;;;13.60;5.85;;;;;;;;;;4947256;28;20070;-65
2021/10/22 07:25:30;;;;;;;19.30;7.07;;;;;;;;;;4956648;28;20039;-65
2021/10/22 07:27:55;;;;;;;11.98;5.53;;;;;;;;;;4942995;29;20038;-65
2021/10/22 07:30:20;;;;;;;11.48;5.15;;;;;;;;;;4943756;28;20039;-65
2021/10/22 07:32:47;;;;;;;15.10;6.75;;;;;;;;;;4946006;28;20565;-65
2021/10/22 07:35:12;;;;;;;13.00;6.72;;;;;;;;;;4949250;28;20027;-66
2021/10/22 07:37:37;;;;;;;10.95;5.95;;;;;;;;;;4949739;28;20057;-65
2021/10/22 07:40:03;;;;;;;10.45;4.70;;;;;;;;;;4948090;28;20038;-65
2021/10/22 07:42:28;;;;;;;17.20;7.10;;;;;;;;;;4946083;28;20047;-65
2021/10/22 07:44:54;;;;;;;13.48;5.93;;;;;;;;;;4938572;28;20032;-65
2021/10/22 07:47:20;;;;;;;16.70;6.75;;;;;;;;;;4939021;28;20047;-65
2021/10/22 07:49:47;;;;;;;17.35;5.72;;;;;;;;;;4944206;28;20031;-65
2021/10/22 07:52:14;;;;;;;18.90;6.45;;;;;;;;;;4939830;28;20127;-64
2021/10/22 07:54:40;;;;;;;13.90;5.97;;;;;;;;;;4949417;28;20038;-68
2021/10/22 07:57:05;;;;;;;13.90;5.55;;;;;;;;;;4956669;28;20035;-64
2021/10/22 07:59:31;;;;;;;10.75;5.10;;;;;;;;;;4954660;28;20724;-64
2021/10/22 08:01:56;;;;;;;10.80;4.88;;;;;;;;;;4939074;28;20788;-64
2021/10/22 08:04:21;;;;;;;12.65;4.40;;;;;;;;;;4949199;28;20493;-64
2021/10/22 08:06:46;;;;;;;11.52;4.68;;;;;;;;;;4949316;28;20443;-64
2021/10/22 08:09:11;;;;;;;7.07;3.30;;;;;;;;;;4945541;28;20567;-64
2021/10/22 08:11:37;;;;;;;7.43;3.97;;;;;;;;;;4934449;28;20039;-65
2021/10/22 08:14:03;;;;;;;9.27;4.50;;;;;;;;;;4950038;28;20061;-64
2021/10/22 08:16:28;;;;;;;11.68;4.53;;;;;;;;;;4943842;28;20090;-67
2021/10/22 08:18:53;;;;;;;10.48;3.90;;;;;;;;;;4948711;28;20031;-64
2021/10/22 08:23:47;;;;;;;14.45;4.47;;;;;;;;;;4949184;28;20035;-64
2021/10/22 08:26:13;;;;;;;9.82;4.10;;;;;;;;;;4948417;28;20051;-64
2021/10/22 08:28:38;;;;;;;10.55;3.92;;;;;;;;;;4945437;28;20496;-64
2021/10/22 08:31:03;;;;;;;11.10;4.15;;;;;;;;;;4944601;28;20046;-64
2021/10/22 08:33:29;;;;;;;13.45;4.22;;;;;;;;;;4935542;28;20135;-64
2021/10/22 08:35:54;;;;;;;8.10;3.42;;;;;;;;;;4943034;28;20043;-63
2021/10/22 08:38:19;;;;;;;10.15;3.70;;;;;;;;;;4947298;28;20552;-64
2021/10/22 08:40:45;;;;;;;12.13;3.13;;;;;;;;;;4944215;28;20066;-64
2021/10/22 08:43:10;;;;;;;11.05;3.90;;;;;;;;;;4960000;28;20039;-64
2021/10/22 08:45:36;;;;;;;8.30;2.92;;;;;;;;;;4947965;28;20736;-64
2021/10/22 08:48:01;;;;;;;10.48;3.50;;;;;;;;;;4943664;29;20059;-63
2021/10/22 08:50:26;;;;;;;12.57;4.13;;;;;;;;;;4947089;28;20390;-64
2021/10/22 08:52:52;;;;;;;10.68;3.85;;;;;;;;;;4944650;28;20035;-63
2021/10/22 08:55:17;;;;;;;11.27;4.25;;;;;;;;;;4945357;28;20030;-63
2021/10/22 08:57:45;;;;;;;9.32;3.63;;;;;;;;;;4948318;28;20019;-63
2021/10/22 09:00:11;;;;;;;12.10;3.97;;;;;;;;;;4948515;28;20053;-63
2021/10/22 09:02:37;;;;;;;17.00;4.60;;;;;;;;;;4951291;28;20465;-62
2021/10/22 09:05:09;;;;;;;10.00;3.78;;;;;;;;;;4935895;28;20041;-63
2021/10/22 09:07:54;;;;;;;14.20;3.33;;;;;;;;;;4941733;29;20015;-63
2021/10/22 09:10:20;;;;;;;14.60;3.70;;;;;;;;;;4947973;28;20110;-63
2021/10/22 09:12:52;;;;;;;8.95;3.28;;;;;;;;;;4937693;28;20031;-63
2021/10/22 09:15:22;;;;;;;10.82;3.97;;;;;;;;;;4942777;28;20134;-63
2021/10/22 09:17:47;;;;;;;9.03;3.33;;;;;;;;;;4942196;28;20106;-63
2021/10/22 09:20:14;;;;;;;12.82;3.35;;;;;;;;;;4942698;28;20148;-65
2021/10/22 09:22:40;;;;;;;8.95;3.40;;;;;;;;;;4942796;28;20514;-64
2021/10/22 09:25:07;;;;;;;14.88;3.72;;;;;;;;;;4945910;28;20099;-65
2021/10/22 09:27:42;;;;;;;11.95;3.45;;;;;;;;;;4945765;28;20031;-65
2021/10/22 09:30:09;;;;;;;9.88;3.22;;;;;;;;;;4942625;28;20466;-65
2021/10/22 09:32:34;;;;;;;11.85;3.63;;;;;;;;;;4931825;28;20388;-65
2021/10/22 09:35:00;;;;;;;9.98;3.75;;;;;;;;;;4946434;29;20034;-64
2021/10/22 09:37:34;;;;;;;11.07;3.40;;;;;;;;;;4947261;28;20031;-65
2021/10/22 09:39:59;;;;;;;10.52;3.60;;;;;;;;;;4948336;28;20064;-64
2021/10/22 09:42:24;;;;;;;12.23;3.72;;;;;;;;;;4941062;28;20440;-64
2021/10/22 09:44:49;;;;;;;9.10;3.42;;;;;;;;;;4946056;29;20031;-64
2021/10/22 09:47:18;;;;;;;8.30;3.33;;;;;;;;;;4946929;28;20167;-64
2021/10/22 09:49:45;;;;;;;8.38;3.10;;;;;;;;;;4946928;28;20094;-64
2021/10/22 09:52:18;;;;;;;20.15;4.03;;;;;;;;;;4941590;28;20371;-65
2021/10/22 09:54:44;;;;;;;6.20;2.53;;;;;;;;;;4944955;28;20386;-65
2021/10/22 09:57:09;;;;;;;8.50;3.22;;;;;;;;;;4942986;28;20066;-65
2021/10/22 09:59:36;;;;;;;10.23;3.75;;;;;;;;;;4940228;29;20418;-65
2021/10/22 10:02:01;;;;;;;12.70;3.13;;;;;;;;;;4942546;28;20036;-65
2021/10/22 10:04:27;;;;;;;10.95;3.85;;;;;;;;;;4945587;28;20033;-64
2021/10/22 10:06:53;;;;;;;13.70;3.50;;;;;;;;;;4938368;28;20435;-65
2021/10/22 10:09:19;;;;;;;8.10;3.28;;;;;;;;;;4952066;28;20028;-65
2021/10/22 10:11:44;;;;;;;14.52;3.70;;;;;;;;;;4941558;28;20035;-65
2021/10/22 10:14:12;;;;;;;9.32;3.20;;;;;;;;;;4944640;28;20106;-64
2021/10/22 10:16:37;;;;;;;11.40;3.72;;;;;;;;;;4947558;28;20055;-65
2021/10/22 10:19:21;;;;;;;9.77;3.45;;;;;;;;;;4942320;28;20066;-64
2021/10/22 10:21:48;;;;;;;13.85;3.40;;;;;;;;;;4946735;28;20035;-65
2021/10/22 10:24:13;;;;;;;5.57;2.83;;;;;;;;;;4939654;29;20024;-65
2021/10/22 10:26:39;;;;;;;9.43;2.90;;;;;;;;;;4946295;28;20062;-65
2021/10/22 10:29:05;;;;;;;8.43;3.30;;;;;;;;;;4947066;28;20114;-65
2021/10/22 10:31:37;;;;;;;7.82;2.67;;;;;;;;;;4941629;28;20038;-65
2021/10/22 10:34:22;;;;;;;11.93;3.28;;;;;;;;;;4936356;28;20034;-65
2021/10/22 10:36:51;;;;;;;5.15;2.20;;;;;;;;;;4938176;28;20036;-65
2021/10/22 10:39:36;;;;;;;9.27;2.88;;;;;;;;;;4934705;29;20043;-65
2021/10/22 10:42:20;;;;;;;10.77;2.55;;;;;;;;;;4941861;28;20046;-65
2021/10/22 10:44:45;;;;;;;7.65;2.08;;;;;;;;;;4943123;29;20113;-65
2021/10/22 10:47:37;;;;;;;6.35;2.28;;;;;;;;;;4946732;28;20122;-65
2021/10/22 10:50:03;;;;;;;7.93;1.85;;;;;;;;;;4932538;28;20027;-64
2021/10/22 10:52:38;;;;;;;15.20;2.45;;;;;;;;;;4939243;28;20023;-65
2021/10/22 10:55:12;;;;;;;7.50;1.85;;;;;;;;;;4946958;28;20074;-64
2021/10/22 10:57:51;;;;;;;10.77;1.90;;;;;;;;;;4945581;28;20081;-65
2021/10/22 11:00:17;;;;;;;6.45;2.08;;;;;;;;;;4937280;28;20620;-64
2021/10/22 11:03:01;;;;;;;7.65;1.90;;;;;;;;;;4943229;28;20437;-64
2021/10/22 11:05:42;;;;;;;5.47;2.03;;;;;;;;;;4950600;28;20050;-64
2021/10/22 11:08:17;;;;;;;7.35;2.10;;;;;;;;;;4950970;28;20106;-64
2021/10/22 11:11:11;;;;;;;7.43;2.95;;;;;;;;;;4945136;28;20609;-64
2021/10/22 11:13:42;;;;;;;8.10;2.00;;;;;;;;;;4950053;28;20063;-64
2021/10/22 11:19:00;;;;;;;3.60;1.60;;;;;;;;;;4949565;28;20121;-64
2021/10/22 11:21:26;;;;;;;8.13;1.90;;;;;;;;;;4950396;28;20035;-64
2021/10/22 11:23:51;;;;;;;7.13;1.92;;;;;;;;;;4949218;28;20062;-64
2021/10/22 11:26:19;;;;;;;7.10;1.75;;;;;;;;;;4943377;28;20175;-64
2021/10/22 11:28:45;;;;;;;6.03;1.67;;;;;;;;;;4944769;29;20101;-64
2021/10/22 11:31:10;;;;;;;5.18;1.60;;;;;;;;;;4944425;28;20035;-63
2021/10/22 11:33:36;;;;;;;7.82;1.95;;;;;;;;;;4939196;28;20031;-64
2021/10/22 11:36:01;;;;;;;6.00;1.67;;;;;;;;;;4944415;28;20473;-64
2021/10/22 11:38:29;;;;;;;5.68;1.77;;;;;;;;;;4949722;28;20031;-64
2021/10/22 11:40:54;;;;;;;7.47;1.90;;;;;;;;;;4946073;28;20074;-64
2021/10/22 11:43:20;;;;;;;9.77;1.75;;;;;;;;;;4953405;28;20030;-63
2021/10/22 11:45:51;;;;;;;9.50;2.13;;;;;;;;;;4949878;28;20051;-63
2021/10/22 11:48:28;;;;;;;6.28;1.80;;;;;;;;;;4949242;28;20470;-64
2021/10/22 11:50:54;;;;;;;7.38;1.92;;;;;;;;;;4947234;28;20046;-64
2021/10/22 11:53:24;;;;;;;5.72;1.80;;;;;;;;;;4950332;28;20401;-64
2021/10/22 11:55:50;;;;;;;5.28;2.00;;;;;;;;;;4948137;28;20101;-64
2021/10/22 11:58:18;;;;;;;4.93;1.90;;;;;;;;;;4949967;28;20469;-64
2021/10/22 12:00:56;;;;;;;10.15;2.22;;;;;;;;;;4945355;28;20052;-64
2021/10/22 12:03:27;;;;;;;6.63;1.83;;;;;;;;;;4940357;28;20066;-64
2021/10/22 12:05:54;;;;;;;8.25;1.70;;;;;;;;;;4944579;28;20043;-64
2021/10/22 12:08:19;;;;;;;7.45;1.70;;;;;;;;;;4949735;28;20035;-63
2021/10/22 12:10:52;;;;;;;10.50;1.73;;;;;;;;;;4948480;28;20389;-64
2021/10/22 12:13:27;;;;;;;7.22;1.80;;;;;;;;;;4938104;28;20043;-64
2021/10/22 12:15:52;;;;;;;6.53;1.55;;;;;;;;;;4940765;28;20035;-64
2021/10/22 12:18:17;;;;;;;9.52;2.08;;;;;;;;;;4937928;28;20041;-66
2021/10/22 12:20:43;;;;;;;6.82;1.70;;;;;;;;;;4946998;28;20027;-64
2021/10/22 12:23:09;;;;;;;4.88;1.67;;;;;;;;;;4944984;28;20050;-64
2021/10/22 12:25:34;;;;;;;10.40;1.77;;;;;;;;;;4944949;28;20036;-64
2021/10/22 12:28:00;;;;;;;5.22;1.30;;;;;;;;;;4944557;28;20049;-64
2021/10/22 12:30:26;;;;;;;7.70;1.63;;;;;;;;;;4949023;28;20447;-64
2021/10/22 12:32:54;;;;;;;6.90;1.65;;;;;;;;;;4949092;28;20078;-64
2021/10/22 12:35:35;;;;;;;6.70;1.98;;;;;;;;;;4943087;28;20071;-64
2021/10/22 12:38:11;;;;;;;6.22;1.85;;;;;;;;;;4945682;29;20481;-64
2021/10/22 12:40:38;;;;;;;9.48;2.25;;;;;;;;;;4948647;28;20134;-64
2021/10/22 12:43:08;;;;;;;6.32;1.70;;;;;;;;;;4948487;28;20564;-63
2021/10/22 12:45:38;;;;;;;3.83;1.65;;;;;;;;;;4948982;28;20047;-64
2021/10/22 12:48:04;;;;;;;4.70;1.67;;;;;;;;;;4952632;28;20118;-63
2021/10/22 12:50:31;;;;;;;11.00;2.25;;;;;;;;;;4942488;28;20355;-63
2021/10/22 12:52:57;;;;;;;13.68;2.47;;;;;;;;;;4943224;28;20023;-63
2021/10/22 12:55:22;;;;;;;9.05;2.65;;;;;;;;;;4942203;28;20040;-62
2021/10/22 12:57:47;;;;;;;12.05;2.85;;;;;;;;;;4949049;28;20078;-63
2021/10/22 13:00:17;;;;;;;5.15;1.67;;;;;;;;;;4941423;28;20478;-63
2021/10/22 13:02:42;;;;;;;8.65;2.38;;;;;;;;;;4948707;28;20089;-64
2021/10/22 13:05:16;;;;;;;11.15;2.20;;;;;;;;;;4946196;28;20481;-64
2021/10/22 13:07:58;;;;;;;9.25;1.98;;;;;;;;;;4944278;29;20024;-63
2021/10/22 13:20:58;;;;;;;7.07;1.88;;;;;;;;;;4941324;28;20046;-63
2021/10/22 13:23:23;;;;;;;8.23;2.03;;;;;;;;;;4947499;28;20031;-64
2021/10/22 13:25:49;;;;;;;5.85;1.95;;;;;;;;;;4938593;28;20040;-67
2021/10/22 13:28:18;;;;;;;6.03;1.63;;;;;;;;;;4942003;28;20065;-63
2021/10/22 13:30:44;;;;;;;7.43;2.08;;;;;;;;;;4940220;28;20065;-63
2021/10/22 13:33:16;;;;;;;9.80;2.60;;;;;;;;;;4932895;28;20056;-63
2021/10/22 13:35:42;;;;;;;4.30;1.80;;;;;;;;;;4942645;28;20496;-63
2021/10/22 13:38:09;;;;;;;9.30;1.75;;;;;;;;;;4943686;29;20101;-62
2021/10/22 13:40:35;;;;;;;12.98;1.85;;;;;;;;;;4945048;28;20114;-62
2021/10/22 13:43:00;;;;;;;7.05;1.67;;;;;;;;;;4937046;28;20114;-63
2021/10/22 13:45:25;;;;;;;6.03;1.75;;;;;;;;;;4947361;28;20101;-62
2021/10/22 13:47:51;;;;;;;3.85;1.55;;;;;;;;;;4947527;28;20604;-62
2021/10/22 13:50:16;;;;;;;5.88;1.80;;;;;;;;;;4933471;28;20115;-64
2021/10/22 13:52:41;;;;;;;7.80;1.70;;;;;;;;;;4942213;29;20038;-62
2021/10/22 13:55:07;;;;;;;6.50;1.80;;;;;;;;;;4945461;28;20160;-62
2021/10/22 13:57:32;;;;;;;8.70;2.08;;;;;;;;;;4947549;28;20703;-62
2021/10/22 13:59:57;;;;;;;3.45;1.40;;;;;;;;;;4947843;28;20023;-64
2021/10/22 14:02:22;;;;;;;7.05;1.80;;;;;;;;;;4943802;28;20045;-62
2021/10/22 14:04:48;;;;;;;4.70;1.95;;;;;;;;;;4942010;28;20591;-62
2021/10/22 14:07:13;;;;;;;4.55;1.70;;;;;;;;;;4943215;28;20046;-63
2021/10/22 14:09:39;;;;;;;5.43;1.77;;;;;;;;;;4947482;29;20275;-63
2021/10/22 14:12:27;;;;;;;6.53;2.05;;;;;;;;;;4941079;28;20035;-63
2021/10/22 14:15:10;;;;;;;6.40;1.60;;;;;;;;;;4941145;29;20062;-63
2021/10/22 14:23:01;;;;;;;4.78;1.77;;;;;;;;;;4938972;28;20437;-63
2021/10/22 14:31:06;;;;;;;7.97;2.13;;;;;;;;;;4949938;28;20101;-63
2021/10/22 14:33:32;;;;;;;7.85;2.10;;;;;;;;;;4946183;28;20027;-64
2021/10/22 14:35:57;;;;;;;9.68;2.33;;;;;;;;;;4947379;28;20043;-64
2021/10/22 14:38:22;;;;;;;4.63;2.10;;;;;;;;;;4945572;28;20347;-63
2021/10/22 14:40:50;;;;;;;5.25;2.20;;;;;;;;;;4945861;28;20046;-62
2021/10/22 14:43:23;;;;;;;16.65;6.15;;;;;;;;;;4951373;29;20097;-63
2021/10/22 14:45:59;;;;;;;7.82;2.50;;;;;;;;;;4950422;28;20595;-62
2021/10/22 14:48:25;;;;;;;5.80;2.13;;;;;;;;;;4952488;28;20110;-63
2021/10/22 14:50:51;;;;;;;7.97;2.33;;;;;;;;;;4944387;28;20050;-64
2021/10/22 14:55:50;;;;;;;3.97;1.70;;;;;;;;;;4947842;28;20397;-64
2021/10/22 14:58:20;;;;;;;6.43;1.63;;;;;;;;;;4951546;28;20464;-64
2021/10/22 15:00:46;;;;;;;5.70;1.80;;;;;;;;;;4940425;28;20039;-64
2021/10/22 15:03:11;;;;;;;5.57;2.00;;;;;;;;;;4943816;29;20043;-64
2021/10/22 15:05:37;;;;;;;6.70;2.10;;;;;;;;;;4943594;28;20131;-63
2021/10/22 15:08:02;;;;;;;4.53;1.58;;;;;;;;;;4942195;29;20031;-64